sensor_id;sensor_type;location;lat;lon;timestamp;pressure;altitude;pressure_sealevel;temperature
41593;BMP180;28026;48.562;14.440;2023-05-10T00:01:06;93220.00;;;18.40
41593;BMP180;28026;48.562;14.440;2023-05-10T00:03:37;93214.00;;;18.40
41593;BMP180;28026;48.562;14.440;2023-05-10T00:06:08;93219.00;;;18.50
41593;BMP180;28026;48.562;14.440;2023-05-10T00:08:39;93216.00;;;18.50
41593;BMP180;28026;48.562;14.440;2023-05-10T00:11:10;93212.00;;;18.50
41593;BMP180;28026;48.562;14.440;2023-05-10T00:13:41;93214.00;;;18.50
41593;BMP180;28026;48.562;14.440;2023-05-10T00:16:11;93201.00;;;18.40
41593;BMP180;28026;48.562;14.440;2023-05-10T00:18:43;93208.00;;;18.40
41593;BMP180;28026;48.562;14.440;2023-05-10T00:21:14;93200.00;;;18.50
41593;BMP180;28026;48.562;14.440;2023-05-10T00:23:45;93193.00;;;18.40
41593;BMP180;28026;48.562;14.440;2023-05-10T00:26:16;93186.00;;;18.40
41593;BMP180;28026;48.562;14.440;2023-05-10T00:28:47;93193.00;;;18.40
41593;BMP180;28026;48.562;14.440;2023-05-10T00:31:18;93188.00;;;18.40
41593;BMP180;28026;48.562;14.440;2023-05-10T00:33:48;93197.00;;;18.30
41593;BMP180;28026;48.562;14.440;2023-05-10T00:36:19;93189.00;;;18.30
41593;BMP180;28026;48.562;14.440;2023-05-10T00:38:51;93189.00;;;18.20
41593;BMP180;28026;48.562;14.440;2023-05-10T00:41:22;93190.00;;;18.20
41593;BMP180;28026;48.562;14.440;2023-05-10T00:43:53;93192.00;;;18.20
41593;BMP180;28026;48.562;14.440;2023-05-10T00:46:24;93183.00;;;18.20
41593;BMP180;28026;48.562;14.440;2023-05-10T00:48:56;93190.00;;;18.20
41593;BMP180;28026;48.562;14.440;2023-05-10T00:51:27;93177.00;;;18.20
41593;BMP180;28026;48.562;14.440;2023-05-10T00:53:58;93186.00;;;18.20
41593;BMP180;28026;48.562;14.440;2023-05-10T00:56:29;93171.00;;;18.10
41593;BMP180;28026;48.562;14.440;2023-05-10T00:59:00;93167.00;;;18.10
41593;BMP180;28026;48.562;14.440;2023-05-10T01:01:31;93191.00;;;18.10
41593;BMP180;28026;48.562;14.440;2023-05-10T01:04:03;93193.00;;;18.10
41593;BMP180;28026;48.562;14.440;2023-05-10T01:06:34;93186.00;;;18.00
41593;BMP180;28026;48.562;14.440;2023-05-10T01:09:05;93179.00;;;18.00
41593;BMP180;28026;48.562;14.440;2023-05-10T01:11:38;93182.00;;;18.00
41593;BMP180;28026;48.562;14.440;2023-05-10T01:14:10;93187.00;;;17.90
41593;BMP180;28026;48.562;14.440;2023-05-10T01:16:42;93199.00;;;17.90
41593;BMP180;28026;48.562;14.440;2023-05-10T01:19:26;93203.00;;;17.90
41593;BMP180;28026;48.562;14.440;2023-05-10T01:25:53;93194.00;;;17.80
41593;BMP180;28026;48.562;14.440;2023-05-10T01:35:16;93202.00;;;17.70
41593;BMP180;28026;48.562;14.440;2023-05-10T01:38:03;93211.00;;;17.70
41593;BMP180;28026;48.562;14.440;2023-05-10T01:40:50;93215.00;;;17.70
41593;BMP180;28026;48.562;14.440;2023-05-10T01:43:36;93207.00;;;17.70
41593;BMP180;28026;48.562;14.440;2023-05-10T01:46:16;93221.00;;;17.70
41593;BMP180;28026;48.562;14.440;2023-05-10T01:48:55;93210.00;;;17.70
41593;BMP180;28026;48.562;14.440;2023-05-10T01:51:38;93214.00;;;17.60
41593;BMP180;28026;48.562;14.440;2023-05-10T01:54:13;93202.00;;;17.60
41593;BMP180;28026;48.562;14.440;2023-05-10T01:56:52;93203.00;;;17.60
41593;BMP180;28026;48.562;14.440;2023-05-10T01:59:31;93198.00;;;17.50
41593;BMP180;28026;48.562;14.440;2023-05-10T02:02:08;93202.00;;;17.50
41593;BMP180;28026;48.562;14.440;2023-05-10T02:04:43;93200.00;;;17.40
41593;BMP180;28026;48.562;14.440;2023-05-10T02:07:15;93200.00;;;17.30
41593;BMP180;28026;48.562;14.440;2023-05-10T02:09:47;93202.00;;;17.20
41593;BMP180;28026;48.562;14.440;2023-05-10T02:12:19;93197.00;;;17.20
41593;BMP180;28026;48.562;14.440;2023-05-10T02:14:52;93195.00;;;17.20
41593;BMP180;28026;48.562;14.440;2023-05-10T02:17:24;93197.00;;;17.20
41593;BMP180;28026;48.562;14.440;2023-05-10T02:19:57;93187.00;;;17.20
41593;BMP180;28026;48.562;14.440;2023-05-10T02:22:31;93196.00;;;17.30
41593;BMP180;28026;48.562;14.440;2023-05-10T02:25:03;93197.00;;;17.30
41593;BMP180;28026;48.562;14.440;2023-05-10T02:27:36;93196.00;;;17.00
41593;BMP180;28026;48.562;14.440;2023-05-10T02:30:08;93189.00;;;16.90
41593;BMP180;28026;48.562;14.440;2023-05-10T02:32:41;93170.00;;;16.80
41593;BMP180;28026;48.562;14.440;2023-05-10T02:35:14;93158.00;;;16.80
41593;BMP180;28026;48.562;14.440;2023-05-10T02:37:47;93176.00;;;16.70
41593;BMP180;28026;48.562;14.440;2023-05-10T02:40:19;93180.00;;;16.80
41593;BMP180;28026;48.562;14.440;2023-05-10T02:42:54;93180.00;;;16.80
41593;BMP180;28026;48.562;14.440;2023-05-10T02:45:29;93172.00;;;16.40
41593;BMP180;28026;48.562;14.440;2023-05-10T02:48:01;93176.00;;;16.30
41593;BMP180;28026;48.562;14.440;2023-05-10T02:50:33;93171.00;;;16.30
41593;BMP180;28026;48.562;14.440;2023-05-10T02:53:11;93172.00;;;16.30
41593;BMP180;28026;48.562;14.440;2023-05-10T02:55:50;93174.00;;;16.40
41593;BMP180;28026;48.562;14.440;2023-05-10T02:58:23;93172.00;;;16.40
41593;BMP180;28026;48.562;14.440;2023-05-10T03:00:54;93173.00;;;16.40
41593;BMP180;28026;48.562;14.440;2023-05-10T03:03:25;93162.00;;;16.40
41593;BMP180;28026;48.562;14.440;2023-05-10T03:05:55;93166.00;;;16.40
41593;BMP180;28026;48.562;14.440;2023-05-10T03:08:27;93161.00;;;16.40
41593;BMP180;28026;48.562;14.440;2023-05-10T03:18:01;93165.00;;;16.30
41593;BMP180;28026;48.562;14.440;2023-05-10T03:20:47;93172.00;;;16.30
41593;BMP180;28026;48.562;14.440;2023-05-10T03:23:35;93171.00;;;16.30
41593;BMP180;28026;48.562;14.440;2023-05-10T03:26:18;93179.00;;;16.20
41593;BMP180;28026;48.562;14.440;2023-05-10T03:28:54;93180.00;;;16.10
41593;BMP180;28026;48.562;14.440;2023-05-10T03:31:26;93168.00;;;16.10
41593;BMP180;28026;48.562;14.440;2023-05-10T03:33:57;93169.00;;;16.10
41593;BMP180;28026;48.562;14.440;2023-05-10T03:36:28;93174.00;;;16.10
41593;BMP180;28026;48.562;14.440;2023-05-10T03:38:59;93175.00;;;16.20
41593;BMP180;28026;48.562;14.440;2023-05-10T03:41:30;93160.00;;;16.30
41593;BMP180;28026;48.562;14.440;2023-05-10T03:44:01;93165.00;;;16.30
41593;BMP180;28026;48.562;14.440;2023-05-10T03:46:31;93168.00;;;16.40
41593;BMP180;28026;48.562;14.440;2023-05-10T03:49:02;93171.00;;;16.40
41593;BMP180;28026;48.562;14.440;2023-05-10T03:51:33;93173.00;;;16.40
41593;BMP180;28026;48.562;14.440;2023-05-10T03:54:04;93185.00;;;16.30
41593;BMP180;28026;48.562;14.440;2023-05-10T03:56:35;93178.00;;;16.10
41593;BMP180;28026;48.562;14.440;2023-05-10T03:59:05;93176.00;;;15.90
41593;BMP180;28026;48.562;14.440;2023-05-10T04:01:37;93181.00;;;16.00
41593;BMP180;28026;48.562;14.440;2023-05-10T04:04:08;93165.00;;;16.00
41593;BMP180;28026;48.562;14.440;2023-05-10T04:06:39;93183.00;;;16.10
41593;BMP180;28026;48.562;14.440;2023-05-10T04:09:10;93179.00;;;16.20
41593;BMP180;28026;48.562;14.440;2023-05-10T04:11:41;93185.00;;;16.40
41593;BMP180;28026;48.562;14.440;2023-05-10T04:14:12;93181.00;;;16.40
41593;BMP180;28026;48.562;14.440;2023-05-10T04:16:42;93181.00;;;16.50
41593;BMP180;28026;48.562;14.440;2023-05-10T04:19:13;93193.00;;;16.70
41593;BMP180;28026;48.562;14.440;2023-05-10T04:21:44;93194.00;;;16.80
41593;BMP180;28026;48.562;14.440;2023-05-10T04:24:15;93188.00;;;17.00
41593;BMP180;28026;48.562;14.440;2023-05-10T04:26:46;93178.00;;;17.10
41593;BMP180;28026;48.562;14.440;2023-05-10T04:29:16;93180.00;;;17.20
41593;BMP180;28026;48.562;14.440;2023-05-10T04:31:47;93188.00;;;17.30
41593;BMP180;28026;48.562;14.440;2023-05-10T04:34:20;93184.00;;;17.30
41593;BMP180;28026;48.562;14.440;2023-05-10T04:36:51;93190.00;;;17.30
41593;BMP180;28026;48.562;14.440;2023-05-10T04:39:22;93204.00;;;17.30
41593;BMP180;28026;48.562;14.440;2023-05-10T04:41:53;93194.00;;;17.50
41593;BMP180;28026;48.562;14.440;2023-05-10T04:44:23;93194.00;;;17.60
41593;BMP180;28026;48.562;14.440;2023-05-10T04:46:54;93204.00;;;17.70
41593;BMP180;28026;48.562;14.440;2023-05-10T04:49:25;93200.00;;;17.70
41593;BMP180;28026;48.562;14.440;2023-05-10T04:51:56;93207.00;;;17.60
41593;BMP180;28026;48.562;14.440;2023-05-10T04:54:27;93199.00;;;17.60
41593;BMP180;28026;48.562;14.440;2023-05-10T04:56:58;93203.00;;;17.60
41593;BMP180;28026;48.562;14.440;2023-05-10T04:59:28;93203.00;;;17.60
41593;BMP180;28026;48.562;14.440;2023-05-10T05:01:59;93206.00;;;17.60
41593;BMP180;28026;48.562;14.440;2023-05-10T05:04:30;93200.00;;;17.60
41593;BMP180;28026;48.562;14.440;2023-05-10T05:07:01;93198.00;;;17.60
41593;BMP180;28026;48.562;14.440;2023-05-10T05:09:32;93198.00;;;17.70
41593;BMP180;28026;48.562;14.440;2023-05-10T05:12:03;93204.00;;;17.70
41593;BMP180;28026;48.562;14.440;2023-05-10T05:14:34;93207.00;;;17.80
41593;BMP180;28026;48.562;14.440;2023-05-10T05:17:05;93215.00;;;17.90
41593;BMP180;28026;48.562;14.440;2023-05-10T05:19:36;93222.00;;;18.10
41593;BMP180;28026;48.562;14.440;2023-05-10T05:22:07;93218.00;;;18.20
41593;BMP180;28026;48.562;14.440;2023-05-10T05:24:39;93217.00;;;18.30
41593;BMP180;28026;48.562;14.440;2023-05-10T05:27:09;93210.00;;;18.40
41593;BMP180;28026;48.562;14.440;2023-05-10T05:29:40;93219.00;;;18.40
41593;BMP180;28026;48.562;14.440;2023-05-10T05:32:11;93216.00;;;18.40
41593;BMP180;28026;48.562;14.440;2023-05-10T05:34:44;93226.00;;;18.60
41593;BMP180;28026;48.562;14.440;2023-05-10T05:37:17;93224.00;;;18.60
41593;BMP180;28026;48.562;14.440;2023-05-10T05:39:49;93223.00;;;18.90
41593;BMP180;28026;48.562;14.440;2023-05-10T05:42:20;93229.00;;;19.00
41593;BMP180;28026;48.562;14.440;2023-05-10T05:44:51;93223.00;;;19.10
41593;BMP180;28026;48.562;14.440;2023-05-10T05:47:22;93235.00;;;19.20
41593;BMP180;28026;48.562;14.440;2023-05-10T05:49:53;93236.00;;;19.20
41593;BMP180;28026;48.562;14.440;2023-05-10T05:52:23;93234.00;;;19.30
41593;BMP180;28026;48.562;14.440;2023-05-10T05:54:54;93224.00;;;19.30
41593;BMP180;28026;48.562;14.440;2023-05-10T05:57:25;93235.00;;;19.50
41593;BMP180;28026;48.562;14.440;2023-05-10T05:59:57;93229.00;;;19.60
41593;BMP180;28026;48.562;14.440;2023-05-10T06:02:27;93225.00;;;19.70
41593;BMP180;28026;48.562;14.440;2023-05-10T06:04:58;93233.00;;;19.70
41593;BMP180;28026;48.562;14.440;2023-05-10T06:07:29;93239.00;;;19.70
41593;BMP180;28026;48.562;14.440;2023-05-10T06:10:00;93241.00;;;19.70
41593;BMP180;28026;48.562;14.440;2023-05-10T06:12:31;93247.00;;;19.70
41593;BMP180;28026;48.562;14.440;2023-05-10T06:15:02;93247.00;;;19.70
41593;BMP180;28026;48.562;14.440;2023-05-10T06:17:34;93246.00;;;19.70
41593;BMP180;28026;48.562;14.440;2023-05-10T06:20:05;93243.00;;;19.70
41593;BMP180;28026;48.562;14.440;2023-05-10T06:22:36;93256.00;;;19.70
41593;BMP180;28026;48.562;14.440;2023-05-10T06:25:08;93259.00;;;19.70
41593;BMP180;28026;48.562;14.440;2023-05-10T06:27:39;93257.00;;;19.80
41593;BMP180;28026;48.562;14.440;2023-05-10T06:30:10;93257.00;;;19.80
41593;BMP180;28026;48.562;14.440;2023-05-10T06:32:43;93262.00;;;19.80
41593;BMP180;28026;48.562;14.440;2023-05-10T06:35:15;93266.00;;;19.80
41593;BMP180;28026;48.562;14.440;2023-05-10T06:37:46;93261.00;;;19.90
41593;BMP180;28026;48.562;14.440;2023-05-10T06:40:17;93264.00;;;19.90
41593;BMP180;28026;48.562;14.440;2023-05-10T06:42:48;93265.00;;;19.90
41593;BMP180;28026;48.562;14.440;2023-05-10T06:45:19;93264.00;;;19.90
41593;BMP180;28026;48.562;14.440;2023-05-10T06:47:51;93251.00;;;19.90
41593;BMP180;28026;48.562;14.440;2023-05-10T06:50:21;93267.00;;;19.80
41593;BMP180;28026;48.562;14.440;2023-05-10T06:52:52;93276.00;;;19.80
41593;BMP180;28026;48.562;14.440;2023-05-10T06:55:23;93281.00;;;19.80
41593;BMP180;28026;48.562;14.440;2023-05-10T06:57:54;93283.00;;;19.80
41593;BMP180;28026;48.562;14.440;2023-05-10T07:00:25;93274.00;;;19.80
41593;BMP180;28026;48.562;14.440;2023-05-10T07:02:56;93279.00;;;19.90
41593;BMP180;28026;48.562;14.440;2023-05-10T07:05:27;93276.00;;;19.80
41593;BMP180;28026;48.562;14.440;2023-05-10T07:07:58;93285.00;;;19.90
41593;BMP180;28026;48.562;14.440;2023-05-10T07:10:29;93280.00;;;19.90
41593;BMP180;28026;48.562;14.440;2023-05-10T07:13:00;93288.00;;;19.80
41593;BMP180;28026;48.562;14.440;2023-05-10T07:15:31;93278.00;;;19.80
41593;BMP180;28026;48.562;14.440;2023-05-10T07:18:02;93294.00;;;19.80
41593;BMP180;28026;48.562;14.440;2023-05-10T07:20:34;93297.00;;;19.80
41593;BMP180;28026;48.562;14.440;2023-05-10T07:23:05;93300.00;;;19.80
41593;BMP180;28026;48.562;14.440;2023-05-10T07:25:36;93300.00;;;19.80
41593;BMP180;28026;48.562;14.440;2023-05-10T07:28:06;93311.00;;;19.80
41593;BMP180;28026;48.562;14.440;2023-05-10T07:30:37;93307.00;;;19.80
41593;BMP180;28026;48.562;14.440;2023-05-10T07:33:08;93314.00;;;19.90
41593;BMP180;28026;48.562;14.440;2023-05-10T07:35:40;93311.00;;;20.00
41593;BMP180;28026;48.562;14.440;2023-05-10T07:38:11;93315.00;;;20.00
41593;BMP180;28026;48.562;14.440;2023-05-10T07:40:42;93323.00;;;20.00
41593;BMP180;28026;48.562;14.440;2023-05-10T07:43:12;93306.00;;;19.90
41593;BMP180;28026;48.562;14.440;2023-05-10T07:45:43;93306.00;;;19.90
41593;BMP180;28026;48.562;14.440;2023-05-10T07:48:14;93310.00;;;19.80
41593;BMP180;28026;48.562;14.440;2023-05-10T07:50:45;93314.00;;;19.80
41593;BMP180;28026;48.562;14.440;2023-05-10T07:53:16;93317.00;;;19.70
41593;BMP180;28026;48.562;14.440;2023-05-10T07:55:51;93304.00;;;19.60
41593;BMP180;28026;48.562;14.440;2023-05-10T07:58:24;93311.00;;;19.60
41593;BMP180;28026;48.562;14.440;2023-05-10T08:00:55;93321.00;;;19.50
41593;BMP180;28026;48.562;14.440;2023-05-10T08:03:26;93323.00;;;19.40
41593;BMP180;28026;48.562;14.440;2023-05-10T08:05:57;93321.00;;;19.30
41593;BMP180;28026;48.562;14.440;2023-05-10T08:08:28;93325.00;;;19.20
41593;BMP180;28026;48.562;14.440;2023-05-10T08:10:59;93331.00;;;19.10
41593;BMP180;28026;48.562;14.440;2023-05-10T08:13:29;93332.00;;;18.90
41593;BMP180;28026;48.562;14.440;2023-05-10T08:16:01;93323.00;;;18.90
41593;BMP180;28026;48.562;14.440;2023-05-10T08:18:32;93335.00;;;18.80
41593;BMP180;28026;48.562;14.440;2023-05-10T08:21:03;93333.00;;;18.70
41593;BMP180;28026;48.562;14.440;2023-05-10T08:23:34;93333.00;;;18.70
41593;BMP180;28026;48.562;14.440;2023-05-10T08:26:05;93329.00;;;18.70
41593;BMP180;28026;48.562;14.440;2023-05-10T08:28:37;93332.00;;;18.80
41593;BMP180;28026;48.562;14.440;2023-05-10T08:31:07;93327.00;;;18.90
41593;BMP180;28026;48.562;14.440;2023-05-10T08:33:38;93340.00;;;19.00
41593;BMP180;28026;48.562;14.440;2023-05-10T08:36:09;93343.00;;;19.00
41593;BMP180;28026;48.562;14.440;2023-05-10T08:38:40;93339.00;;;19.10
41593;BMP180;28026;48.562;14.440;2023-05-10T08:41:11;93341.00;;;19.30
41593;BMP180;28026;48.562;14.440;2023-05-10T08:43:43;93336.00;;;19.30
41593;BMP180;28026;48.562;14.440;2023-05-10T08:46:18;93350.00;;;19.30
41593;BMP180;28026;48.562;14.440;2023-05-10T08:48:51;93337.00;;;19.30
41593;BMP180;28026;48.562;14.440;2023-05-10T08:51:24;93352.00;;;19.30
41593;BMP180;28026;48.562;14.440;2023-05-10T08:53:58;93338.00;;;19.30
41593;BMP180;28026;48.562;14.440;2023-05-10T08:56:30;93349.00;;;19.30
41593;BMP180;28026;48.562;14.440;2023-05-10T08:59:01;93346.00;;;19.30
41593;BMP180;28026;48.562;14.440;2023-05-10T09:01:32;93353.00;;;19.40
41593;BMP180;28026;48.562;14.440;2023-05-10T09:04:06;93347.00;;;19.40
41593;BMP180;28026;48.562;14.440;2023-05-10T09:06:37;93355.00;;;19.40
41593;BMP180;28026;48.562;14.440;2023-05-10T09:09:08;93356.00;;;19.40
41593;BMP180;28026;48.562;14.440;2023-05-10T09:11:39;93361.00;;;19.40
41593;BMP180;28026;48.562;14.440;2023-05-10T09:14:12;93350.00;;;19.50
41593;BMP180;28026;48.562;14.440;2023-05-10T09:16:43;93348.00;;;19.60
41593;BMP180;28026;48.562;14.440;2023-05-10T09:19:14;93354.00;;;19.60
41593;BMP180;28026;48.562;14.440;2023-05-10T09:21:45;93354.00;;;19.60
41593;BMP180;28026;48.562;14.440;2023-05-10T09:24:16;93353.00;;;19.60
41593;BMP180;28026;48.562;14.440;2023-05-10T09:26:48;93348.00;;;19.70
41593;BMP180;28026;48.562;14.440;2023-05-10T09:29:19;93347.00;;;19.70
41593;BMP180;28026;48.562;14.440;2023-05-10T09:31:51;93351.00;;;19.70
41593;BMP180;28026;48.562;14.440;2023-05-10T09:34:31;93351.00;;;19.80
41593;BMP180;28026;48.562;14.440;2023-05-10T09:37:02;93351.00;;;19.90
41593;BMP180;28026;48.562;14.440;2023-05-10T09:39:37;93347.00;;;19.90
41593;BMP180;28026;48.562;14.440;2023-05-10T09:42:09;93357.00;;;19.90
41593;BMP180;28026;48.562;14.440;2023-05-10T09:44:40;93353.00;;;19.80
41593;BMP180;28026;48.562;14.440;2023-05-10T09:47:17;93352.00;;;19.80
41593;BMP180;28026;48.562;14.440;2023-05-10T09:49:50;93359.00;;;19.80
41593;BMP180;28026;48.562;14.440;2023-05-10T09:52:21;93353.00;;;19.80
41593;BMP180;28026;48.562;14.440;2023-05-10T09:54:53;93361.00;;;19.80
41593;BMP180;28026;48.562;14.440;2023-05-10T09:57:25;93362.00;;;19.80
41593;BMP180;28026;48.562;14.440;2023-05-10T09:59:56;93359.00;;;19.80
41593;BMP180;28026;48.562;14.440;2023-05-10T10:02:28;93361.00;;;19.80
41593;BMP180;28026;48.562;14.440;2023-05-10T10:05:00;93357.00;;;19.70
41593;BMP180;28026;48.562;14.440;2023-05-10T10:07:34;93364.00;;;19.60
41593;BMP180;28026;48.562;14.440;2023-05-10T10:10:06;93363.00;;;19.50
41593;BMP180;28026;48.562;14.440;2023-05-10T10:12:41;93364.00;;;19.50
41593;BMP180;28026;48.562;14.440;2023-05-10T10:15:13;93360.00;;;19.50
41593;BMP180;28026;48.562;14.440;2023-05-10T10:17:44;93358.00;;;19.50
41593;BMP180;28026;48.562;14.440;2023-05-10T10:20:16;93364.00;;;19.50
41593;BMP180;28026;48.562;14.440;2023-05-10T10:22:48;93367.00;;;19.40
41593;BMP180;28026;48.562;14.440;2023-05-10T10:25:20;93368.00;;;19.40
41593;BMP180;28026;48.562;14.440;2023-05-10T10:28:09;93358.00;;;19.40
41593;BMP180;28026;48.562;14.440;2023-05-10T10:30:50;93358.00;;;19.50
41593;BMP180;28026;48.562;14.440;2023-05-10T10:35:55;93365.00;;;19.60
41593;BMP180;28026;48.562;14.440;2023-05-10T10:44:23;93367.00;;;19.50
41593;BMP180;28026;48.562;14.440;2023-05-10T10:55:14;93362.00;;;19.70
41593;BMP180;28026;48.562;14.440;2023-05-10T10:57:53;93365.00;;;19.70
41593;BMP180;28026;48.562;14.440;2023-05-10T11:00:39;93363.00;;;19.80
41593;BMP180;28026;48.562;14.440;2023-05-10T11:03:12;93361.00;;;19.80
41593;BMP180;28026;48.562;14.440;2023-05-10T11:05:49;93364.00;;;19.80
41593;BMP180;28026;48.562;14.440;2023-05-10T11:08:31;93366.00;;;19.80
41593;BMP180;28026;48.562;14.440;2023-05-10T11:11:04;93367.00;;;19.80
41593;BMP180;28026;48.562;14.440;2023-05-10T11:13:46;93368.00;;;19.80
41593;BMP180;28026;48.562;14.440;2023-05-10T11:16:21;93362.00;;;19.70
41593;BMP180;28026;48.562;14.440;2023-05-10T11:21:51;93357.00;;;19.70
41593;BMP180;28026;48.562;14.440;2023-05-10T11:24:56;93365.00;;;19.80
41593;BMP180;28026;48.562;14.440;2023-05-10T11:27:28;93361.00;;;19.90
41593;BMP180;28026;48.562;14.440;2023-05-10T11:29:59;93364.00;;;19.90
41593;BMP180;28026;48.562;14.440;2023-05-10T11:32:30;93366.00;;;19.90
41593;BMP180;28026;48.562;14.440;2023-05-10T11:35:07;93370.00;;;20.00
41593;BMP180;28026;48.562;14.440;2023-05-10T11:37:39;93358.00;;;20.00
41593;BMP180;28026;48.562;14.440;2023-05-10T11:40:11;93357.00;;;20.00
41593;BMP180;28026;48.562;14.440;2023-05-10T11:42:42;93355.00;;;20.00
41593;BMP180;28026;48.562;14.440;2023-05-10T11:45:13;93354.00;;;20.00
41593;BMP180;28026;48.562;14.440;2023-05-10T11:47:44;93361.00;;;20.10
41593;BMP180;28026;48.562;14.440;2023-05-10T11:50:15;93359.00;;;20.20
41593;BMP180;28026;48.562;14.440;2023-05-10T11:52:54;93347.00;;;20.20
41593;BMP180;28026;48.562;14.440;2023-05-10T11:55:25;93355.00;;;20.30
41593;BMP180;28026;48.562;14.440;2023-05-10T11:58:00;93354.00;;;20.30
41593;BMP180;28026;48.562;14.440;2023-05-10T12:00:32;93357.00;;;20.30
41593;BMP180;28026;48.562;14.440;2023-05-10T12:03:03;93361.00;;;20.30
41593;BMP180;28026;48.562;14.440;2023-05-10T12:05:35;93364.00;;;20.30
41593;BMP180;28026;48.562;14.440;2023-05-10T12:08:19;93358.00;;;20.40
41593;BMP180;28026;48.562;14.440;2023-05-10T12:11:08;93360.00;;;20.30
41593;BMP180;28026;48.562;14.440;2023-05-10T12:13:44;93356.00;;;20.40
41593;BMP180;28026;48.562;14.440;2023-05-10T12:16:22;93370.00;;;20.40
41593;BMP180;28026;48.562;14.440;2023-05-10T12:18:59;93371.00;;;20.40
41593;BMP180;28026;48.562;14.440;2023-05-10T12:21:30;93373.00;;;20.40
41593;BMP180;28026;48.562;14.440;2023-05-10T12:24:03;93366.00;;;20.40
41593;BMP180;28026;48.562;14.440;2023-05-10T12:26:34;93365.00;;;20.40
41593;BMP180;28026;48.562;14.440;2023-05-10T12:29:16;93366.00;;;20.50
41593;BMP180;28026;48.562;14.440;2023-05-10T12:31:56;93375.00;;;20.60
41593;BMP180;28026;48.562;14.440;2023-05-10T12:34:33;93374.00;;;20.60
41593;BMP180;28026;48.562;14.440;2023-05-10T12:37:06;93371.00;;;20.60
41593;BMP180;28026;48.562;14.440;2023-05-10T12:39:41;93365.00;;;20.60
41593;BMP180;28026;48.562;14.440;2023-05-10T12:42:13;93356.00;;;20.60
41593;BMP180;28026;48.562;14.440;2023-05-10T12:44:43;93376.00;;;20.60
41593;BMP180;28026;48.562;14.440;2023-05-10T12:47:14;93373.00;;;20.60
41593;BMP180;28026;48.562;14.440;2023-05-10T12:49:45;93379.00;;;20.70
41593;BMP180;28026;48.562;14.440;2023-05-10T12:52:16;93371.00;;;20.80
41593;BMP180;28026;48.562;14.440;2023-05-10T12:54:47;93378.00;;;20.80
41593;BMP180;28026;48.562;14.440;2023-05-10T12:57:18;93369.00;;;20.80
41593;BMP180;28026;48.562;14.440;2023-05-10T12:59:50;93369.00;;;20.80
41593;BMP180;28026;48.562;14.440;2023-05-10T13:02:21;93374.00;;;20.80
41593;BMP180;28026;48.562;14.440;2023-05-10T13:04:53;93367.00;;;20.90
41593;BMP180;28026;48.562;14.440;2023-05-10T13:07:24;93362.00;;;21.00
41593;BMP180;28026;48.562;14.440;2023-05-10T13:09:55;93371.00;;;21.00
41593;BMP180;28026;48.562;14.440;2023-05-10T13:12:25;93370.00;;;21.10
41593;BMP180;28026;48.562;14.440;2023-05-10T13:14:56;93368.00;;;21.10
41593;BMP180;28026;48.562;14.440;2023-05-10T13:17:27;93366.00;;;21.10
41593;BMP180;28026;48.562;14.440;2023-05-10T13:19:58;93370.00;;;21.10
41593;BMP180;28026;48.562;14.440;2023-05-10T13:22:28;93370.00;;;21.00
41593;BMP180;28026;48.562;14.440;2023-05-10T13:25:01;93350.00;;;21.00
41593;BMP180;28026;48.562;14.440;2023-05-10T13:27:32;93366.00;;;21.00
41593;BMP180;28026;48.562;14.440;2023-05-10T13:30:03;93365.00;;;21.00
41593;BMP180;28026;48.562;14.440;2023-05-10T13:32:35;93364.00;;;21.00
41593;BMP180;28026;48.562;14.440;2023-05-10T13:35:06;93361.00;;;21.00
41593;BMP180;28026;48.562;14.440;2023-05-10T13:37:38;93366.00;;;20.90
41593;BMP180;28026;48.562;14.440;2023-05-10T13:40:09;93366.00;;;20.90
41593;BMP180;28026;48.562;14.440;2023-05-10T13:42:40;93349.00;;;20.90
41593;BMP180;28026;48.562;14.440;2023-05-10T13:45:12;93359.00;;;20.90
41593;BMP180;28026;48.562;14.440;2023-05-10T13:47:43;93350.00;;;20.90
41593;BMP180;28026;48.562;14.440;2023-05-10T13:50:14;93362.00;;;20.90
41593;BMP180;28026;48.562;14.440;2023-05-10T13:52:45;93358.00;;;20.80
41593;BMP180;28026;48.562;14.440;2023-05-10T13:55:15;93365.00;;;20.80
41593;BMP180;28026;48.562;14.440;2023-05-10T13:57:46;93356.00;;;20.70
41593;BMP180;28026;48.562;14.440;2023-05-10T14:00:18;93349.00;;;20.60
41593;BMP180;28026;48.562;14.440;2023-05-10T14:02:49;93367.00;;;20.50
41593;BMP180;28026;48.562;14.440;2023-05-10T14:05:19;93361.00;;;20.50
41593;BMP180;28026;48.562;14.440;2023-05-10T14:07:51;93354.00;;;20.60
41593;BMP180;28026;48.562;14.440;2023-05-10T14:10:21;93358.00;;;20.70
41593;BMP180;28026;48.562;14.440;2023-05-10T14:12:52;93350.00;;;20.80
41593;BMP180;28026;48.562;14.440;2023-05-10T14:15:23;93348.00;;;20.90
41593;BMP180;28026;48.562;14.440;2023-05-10T14:17:54;93347.00;;;21.00
41593;BMP180;28026;48.562;14.440;2023-05-10T14:20:25;93345.00;;;21.00
41593;BMP180;28026;48.562;14.440;2023-05-10T14:22:55;93355.00;;;21.10
41593;BMP180;28026;48.562;14.440;2023-05-10T14:25:27;93348.00;;;21.20
41593;BMP180;28026;48.562;14.440;2023-05-10T14:27:58;93353.00;;;21.20
41593;BMP180;28026;48.562;14.440;2023-05-10T14:30:29;93346.00;;;21.10
41593;BMP180;28026;48.562;14.440;2023-05-10T14:33:01;93354.00;;;21.00
41593;BMP180;28026;48.562;14.440;2023-05-10T14:35:33;93344.00;;;21.00
41593;BMP180;28026;48.562;14.440;2023-05-10T14:38:04;93346.00;;;21.00
41593;BMP180;28026;48.562;14.440;2023-05-10T14:40:34;93346.00;;;21.00
41593;BMP180;28026;48.562;14.440;2023-05-10T14:43:06;93348.00;;;21.10
41593;BMP180;28026;48.562;14.440;2023-05-10T14:45:36;93354.00;;;21.10
41593;BMP180;28026;48.562;14.440;2023-05-10T14:48:07;93339.00;;;21.10
41593;BMP180;28026;48.562;14.440;2023-05-10T14:50:41;93349.00;;;21.00
41593;BMP180;28026;48.562;14.440;2023-05-10T14:53:12;93344.00;;;21.00
41593;BMP180;28026;48.562;14.440;2023-05-10T14:55:43;93347.00;;;20.80
41593;BMP180;28026;48.562;14.440;2023-05-10T14:58:14;93354.00;;;20.80
41593;BMP180;28026;48.562;14.440;2023-05-10T15:00:45;93351.00;;;20.80
41593;BMP180;28026;48.562;14.440;2023-05-10T15:03:16;93357.00;;;20.80